Time;durP1;ratioP1;P1;durP2;ratioP2;P2;SDS_P1;SDS_P2;PMS_P1;PMS_P2;Temp;Humidity;BMP_temperature;BMP_pressure;BME280_temperature;BME280_humidity;BME280_pressure;Samples;Min_cycle;Max_cycle;Signal;HPM_P1;HPM_P2
2021/12/30 00:00:20;;;;;;;28.35;6.15;;;;;;;;;;6115043;23;20013;-79
2021/12/30 00:06:29;;;;;;;25.75;5.78;;;;;;;;;;6152976;23;20444;-79
2021/12/30 00:09:01;;;;;;;29.63;6.65;;;;;;;;;;6131513;23;20399;-79
2021/12/30 00:12:11;;;;;;;27.23;6.97;;;;;;;;;;6132936;23;20412;-79
2021/12/30 00:14:43;;;;;;;34.92;6.95;;;;;;;;;;6131397;23;20017;-79
2021/12/30 00:17:11;;;;;;;37.28;8.82;;;;;;;;;;6131370;23;20023;-79
2021/12/30 00:19:37;;;;;;;35.95;8.10;;;;;;;;;;6148804;23;20010;-79
2021/12/30 00:22:13;;;;;;;35.65;6.57;;;;;;;;;;6131321;23;20097;-79
2021/12/30 00:25:37;;;;;;;;;;;;;;;;;;;;;
2021/12/30 00:28:09;;;;;;;35.50;7.00;;;;;;;;;;6156601;23;20088;-79
2021/12/30 00:30:40;;;;;;;33.73;7.70;;;;;;;;;;6130658;23;20096;-79
2021/12/30 00:33:15;;;;;;;35.45;7.70;;;;;;;;;;6131904;23;20425;-79
2021/12/30 00:35:43;;;;;;;42.63;8.30;;;;;;;;;;6156537;23;20074;-79
2021/12/30 00:38:20;;;;;;;39.83;7.55;;;;;;;;;;6132470;23;20024;-79
2021/12/30 00:44:11;;;;;;;36.08;6.50;;;;;;;;;;6152278;23;20111;-79
2021/12/30 00:50:12;;;;;;;44.63;8.70;;;;;;;;;;6145942;23;20017;-79
2021/12/30 00:52:43;;;;;;;41.53;7.45;;;;;;;;;;6155971;23;20101;-80
2021/12/30 00:55:23;;;;;;;35.05;7.70;;;;;;;;;;6157668;23;20013;-79
2021/12/30 00:58:03;;;;;;;38.63;7.82;;;;;;;;;;6132014;23;20102;-79
2021/12/30 01:00:59;;;;;;;39.70;7.53;;;;;;;;;;6132447;23;20092;-79
2021/12/30 01:03:41;;;;;;;43.33;8.73;;;;;;;;;;6124546;23;20270;-79
2021/12/30 01:06:45;;;;;;;34.72;7.53;;;;;;;;;;6156290;23;20032;-79
2021/12/30 01:09:28;;;;;;;34.88;7.30;;;;;;;;;;6132916;23;20074;-79
2021/12/30 01:15:09;;;;;;;;;;;;;;;;;;;;;
2021/12/30 01:18:24;;;;;;;37.15;8.13;;;;;;;;;;6155843;23;20018;-80
2021/12/30 01:21:41;;;;;;;36.15;8.77;;;;;;;;;;6155826;23;20014;-79
2021/12/30 01:24:26;;;;;;;37.58;7.90;;;;;;;;;;6151778;23;20083;-79
2021/12/30 01:26:56;;;;;;;42.10;7.93;;;;;;;;;;6130778;23;20009;-79
2021/12/30 01:29:30;;;;;;;34.80;8.18;;;;;;;;;;6131374;23;20121;-79
2021/12/30 01:32:09;;;;;;;33.10;7.57;;;;;;;;;;6156085;23;20442;-79
2021/12/30 01:34:44;;;;;;;34.58;8.13;;;;;;;;;;6133087;23;20017;-79
2021/12/30 01:37:20;;;;;;;34.72;7.93;;;;;;;;;;6132273;23;20021;-79
2021/12/30 01:40:18;;;;;;;42.05;7.07;;;;;;;;;;6158821;23;20048;-79
2021/12/30 01:43:15;;;;;;;35.00;8.27;;;;;;;;;;6136713;23;20028;-79
2021/12/30 01:49:10;;;;;;;34.70;7.22;;;;;;;;;;6158679;23;20092;-80
2021/12/30 01:51:38;;;;;;;39.40;8.15;;;;;;;;;;6160811;23;20362;-79
2021/12/30 01:54:08;;;;;;;34.47;6.90;;;;;;;;;;6136180;23;20159;-79
2021/12/30 01:56:46;;;;;;;33.33;7.32;;;;;;;;;;6160890;23;20021;-79
2021/12/30 01:59:17;;;;;;;36.20;7.07;;;;;;;;;;6132481;23;20028;-82
2021/12/30 02:01:56;;;;;;;32.03;7.65;;;;;;;;;;6136611;23;20097;-79
2021/12/30 02:04:52;;;;;;;31.52;7.05;;;;;;;;;;6163118;23;20399;-79
2021/12/30 02:07:24;;;;;;;27.77;6.85;;;;;;;;;;6133518;23;20013;-79
2021/12/30 02:10:02;;;;;;;29.10;7.20;;;;;;;;;;6135034;23;20094;-79
2021/12/30 02:13:15;;;;;;;34.75;6.65;;;;;;;;;;6145719;23;20095;-79
2021/12/30 02:16:23;;;;;;;33.03;6.57;;;;;;;;;;6066502;23;20011;-80
2021/12/30 02:26:11;;;;;;;32.92;7.72;;;;;;;;;;6066976;23;20026;-79
2021/12/30 02:28:45;;;;;;;28.70;6.63;;;;;;;;;;6003877;23;20015;-78
2021/12/30 02:31:17;;;;;;;32.47;6.38;;;;;;;;;;6018537;23;20169;-79
2021/12/30 02:33:44;;;;;;;31.33;7.40;;;;;;;;;;6101998;23;20147;-79
2021/12/30 02:36:24;;;;;;;38.72;7.13;;;;;;;;;;6137505;23;20013;-79
2021/12/30 02:38:57;;;;;;;33.03;6.78;;;;;;;;;;6135429;23;20017;-79
2021/12/30 02:41:27;;;;;;;34.60;7.68;;;;;;;;;;6135493;23;20285;-79
2021/12/30 02:44:05;;;;;;;39.70;7.65;;;;;;;;;;6137183;23;20052;-79
2021/12/30 02:46:40;;;;;;;34.83;6.90;;;;;;;;;;6136458;23;20013;-79
2021/12/30 02:49:17;;;;;;;32.75;7.85;;;;;;;;;;6136561;23;20100;-79
2021/12/30 02:52:15;;;;;;;35.97;7.22;;;;;;;;;;6160552;23;20403;-79
2021/12/30 02:54:50;;;;;;;35.00;7.72;;;;;;;;;;6135338;23;20059;-79
2021/12/30 02:57:27;;;;;;;33.20;6.65;;;;;;;;;;6158598;23;20474;-79
2021/12/30 03:00:06;;;;;;;33.20;7.30;;;;;;;;;;6136918;23;20383;-78
2021/12/30 03:02:45;;;;;;;29.58;6.78;;;;;;;;;;6135779;23;20327;-79
2021/12/30 03:05:15;;;;;;;31.60;6.18;;;;;;;;;;6136483;23;20073;-79
2021/12/30 03:07:48;;;;;;;28.15;7.68;;;;;;;;;;6134486;23;20096;-78
2021/12/30 03:10:15;;;;;;;27.80;6.93;;;;;;;;;;6135241;23;20016;-81
2021/12/30 03:13:04;;;;;;;30.15;7.25;;;;;;;;;;6159672;23;20047;-78
2021/12/30 03:15:35;;;;;;;28.33;6.45;;;;;;;;;;6130190;23;20052;-79
2021/12/30 03:18:04;;;;;;;32.85;6.70;;;;;;;;;;6136143;23;20088;-78
2021/12/30 03:20:34;;;;;;;43.20;6.72;;;;;;;;;;6160540;23;20013;-78
2021/12/30 03:23:04;;;;;;;30.27;6.75;;;;;;;;;;6159084;23;20013;-78
2021/12/30 03:25:35;;;;;;;30.73;6.65;;;;;;;;;;6135344;23;20092;-78
2021/12/30 03:28:01;;;;;;;38.78;7.63;;;;;;;;;;6134479;23;20017;-78
2021/12/30 03:30:31;;;;;;;33.50;6.78;;;;;;;;;;6136226;23;20028;-78
2021/12/30 03:32:57;;;;;;;37.83;7.93;;;;;;;;;;6135728;23;20403;-78
2021/12/30 03:35:29;;;;;;;32.53;7.18;;;;;;;;;;6135957;23;20009;-78
2021/12/30 03:37:56;;;;;;;36.22;7.07;;;;;;;;;;6159431;23;20017;-79
2021/12/30 03:40:23;;;;;;;29.60;6.70;;;;;;;;;;6124343;23;20022;-79
2021/12/30 03:42:52;;;;;;;30.25;6.78;;;;;;;;;;6101529;23;20121;-78
2021/12/30 03:45:34;;;;;;;36.30;6.97;;;;;;;;;;6104259;23;20014;-79
2021/12/30 03:48:01;;;;;;;31.77;7.15;;;;;;;;;;6127274;23;20017;-79
2021/12/30 03:50:30;;;;;;;35.00;7.18;;;;;;;;;;6103002;23;20313;-78
2021/12/30 03:53:01;;;;;;;36.63;7.85;;;;;;;;;;6127146;23;20021;-78
2021/12/30 03:55:31;;;;;;;39.03;7.25;;;;;;;;;;6127790;23;20112;-78
2021/12/30 03:57:57;;;;;;;31.85;6.35;;;;;;;;;;6103152;23;20369;-78
2021/12/30 04:00:26;;;;;;;39.83;7.18;;;;;;;;;;6126913;23;20052;-80
2021/12/30 04:02:53;;;;;;;34.88;7.90;;;;;;;;;;6126950;23;20085;-78
2021/12/30 04:05:24;;;;;;;35.45;7.47;;;;;;;;;;6103820;23;20018;-77
2021/12/30 04:07:50;;;;;;;40.10;7.82;;;;;;;;;;6127356;23;20018;-78
2021/12/30 04:10:24;;;;;;;42.60;7.95;;;;;;;;;;6127214;23;20013;-77
2021/12/30 04:12:51;;;;;;;36.20;7.55;;;;;;;;;;6102465;23;20060;-79
2021/12/30 04:15:17;;;;;;;32.80;7.50;;;;;;;;;;6126880;23;20022;-78
2021/12/30 04:17:43;;;;;;;49.47;9.15;;;;;;;;;;6103019;23;20152;-79
2021/12/30 04:20:11;;;;;;;40.30;8.52;;;;;;;;;;6102480;23;20009;-78
2021/12/30 04:22:37;;;;;;;37.10;8.32;;;;;;;;;;6102949;23;20282;-78
2021/12/30 04:25:04;;;;;;;40.38;8.13;;;;;;;;;;6102362;23;20429;-78
2021/12/30 04:27:33;;;;;;;37.20;7.82;;;;;;;;;;6126665;23;20032;-78
2021/12/30 04:29:59;;;;;;;46.47;8.90;;;;;;;;;;6102582;23;20368;-78
2021/12/30 04:32:25;;;;;;;36.55;8.60;;;;;;;;;;6102837;23;20022;-78
2021/12/30 04:34:51;;;;;;;41.00;9.73;;;;;;;;;;6127560;23;20014;-79
2021/12/30 04:37:18;;;;;;;41.25;8.73;;;;;;;;;;6102566;23;20033;-79
2021/12/30 04:39:44;;;;;;;42.53;8.85;;;;;;;;;;6102487;23;20010;-79
2021/12/30 04:42:10;;;;;;;42.45;8.75;;;;;;;;;;6129838;23;20021;-78
2021/12/30 04:44:36;;;;;;;50.22;9.27;;;;;;;;;;6156859;23;20021;-79
2021/12/30 04:47:03;;;;;;;53.40;9.73;;;;;;;;;;6132440;23;20017;-79
2021/12/30 04:49:29;;;;;;;45.28;9.68;;;;;;;;;;6156356;23;20018;-78
2021/12/30 04:51:55;;;;;;;35.53;9.95;;;;;;;;;;6131677;23;20048;-78
2021/12/30 04:54:21;;;;;;;45.20;10.80;;;;;;;;;;6132280;23;20013;-78
2021/12/30 04:56:47;;;;;;;53.42;10.38;;;;;;;;;;6156198;23;20028;-78
2021/12/30 04:59:16;;;;;;;44.50;9.90;;;;;;;;;;6132042;23;20129;-78
2021/12/30 05:01:44;;;;;;;43.05;10.07;;;;;;;;;;6130513;23;20359;-79
2021/12/30 05:04:13;;;;;;;43.72;11.18;;;;;;;;;;6106453;23;20294;-78
2021/12/30 05:06:42;;;;;;;41.50;10.63;;;;;;;;;;6106076;23;20013;-79
2021/12/30 05:09:11;;;;;;;52.55;11.18;;;;;;;;;;6105752;23;20025;-81
2021/12/30 05:11:40;;;;;;;49.40;11.63;;;;;;;;;;6130112;23;20017;-78
2021/12/30 05:14:07;;;;;;;53.30;13.07;;;;;;;;;;6130348;23;20423;-78
2021/12/30 05:16:36;;;;;;;55.85;12.02;;;;;;;;;;6105735;23;20017;-79
2021/12/30 05:19:09;;;;;;;63.30;13.73;;;;;;;;;;6105938;23;20294;-78
2021/12/30 05:21:36;;;;;;;63.78;13.93;;;;;;;;;;6105374;23;20084;-80
2021/12/30 05:24:10;;;;;;;75.95;14.95;;;;;;;;;;6106159;23;20013;-79
2021/12/30 05:26:37;;;;;;;82.57;15.95;;;;;;;;;;6121087;23;20013;-79
2021/12/30 05:29:10;;;;;;;78.90;16.98;;;;;;;;;;6132101;23;20088;-78
2021/12/30 05:31:39;;;;;;;84.70;17.40;;;;;;;;;;6131875;23;20023;-79
2021/12/30 05:34:05;;;;;;;58.33;16.08;;;;;;;;;;6131664;23;20024;-78
2021/12/30 05:36:31;;;;;;;74.60;17.52;;;;;;;;;;6130936;23;20184;-78
2021/12/30 05:38:57;;;;;;;81.72;16.92;;;;;;;;;;6131372;23;20013;-78
2021/12/30 05:41:28;;;;;;;73.78;17.65;;;;;;;;;;6130900;23;20144;-79
2021/12/30 05:43:55;;;;;;;73.55;18.35;;;;;;;;;;6130849;23;20060;-80
2021/12/30 05:46:32;;;;;;;65.65;15.82;;;;;;;;;;6131305;23;20025;-80
2021/12/30 05:49:03;;;;;;;74.43;18.90;;;;;;;;;;6130791;23;20025;-81
2021/12/30 05:51:41;;;;;;;64.07;18.63;;;;;;;;;;6155836;23;20463;-82
2021/12/30 05:54:07;;;;;;;62.25;16.40;;;;;;;;;;6155796;23;20416;-81
2021/12/30 05:56:33;;;;;;;60.13;17.90;;;;;;;;;;6155844;23;20017;-80
2021/12/30 05:58:59;;;;;;;59.15;18.40;;;;;;;;;;6156227;23;20096;-83
2021/12/30 06:01:25;;;;;;;58.38;17.33;;;;;;;;;;6155722;23;20014;-79
2021/12/30 06:03:51;;;;;;;59.95;17.33;;;;;;;;;;6156279;23;20084;-77
2021/12/30 06:06:17;;;;;;;54.72;18.15;;;;;;;;;;6156914;23;20021;-75
2021/12/30 06:08:43;;;;;;;51.00;17.58;;;;;;;;;;6155525;23;20032;-75
2021/12/30 06:11:10;;;;;;;56.90;18.85;;;;;;;;;;6157107;23;20053;-78
2021/12/30 06:13:36;;;;;;;54.17;17.42;;;;;;;;;;6157068;23;20037;-76
2021/12/30 06:16:02;;;;;;;64.30;18.10;;;;;;;;;;6156628;23;20022;-77
2021/12/30 06:18:28;;;;;;;54.03;19.02;;;;;;;;;;6156034;23;20053;-79
2021/12/30 06:20:54;;;;;;;62.83;20.92;;;;;;;;;;6131708;23;20018;-79
2021/12/30 06:23:20;;;;;;;59.92;19.23;;;;;;;;;;6131149;23;20045;-78
2021/12/30 06:25:46;;;;;;;53.28;18.70;;;;;;;;;;6157072;23;20022;-77
2021/12/30 06:28:12;;;;;;;49.50;17.27;;;;;;;;;;6131223;23;20353;-75
2021/12/30 06:30:38;;;;;;;57.17;19.33;;;;;;;;;;6155436;23;20089;-76
2021/12/30 06:33:04;;;;;;;50.85;19.00;;;;;;;;;;6130635;23;20026;-75
2021/12/30 06:35:34;;;;;;;56.17;20.00;;;;;;;;;;6156277;23;20029;-76
2021/12/30 06:38:00;;;;;;;54.47;17.02;;;;;;;;;;6156655;23;20112;-75
2021/12/30 06:40:26;;;;;;;47.50;16.83;;;;;;;;;;6164376;23;20019;-75
2021/12/30 06:42:52;;;;;;;52.55;18.45;;;;;;;;;;6186728;23;20028;-75
2021/12/30 06:45:18;;;;;;;46.00;16.50;;;;;;;;;;6186232;23;20079;-76
2021/12/30 06:47:45;;;;;;;51.90;17.17;;;;;;;;;;6186547;23;20036;-74
2021/12/30 06:50:13;;;;;;;47.78;17.45;;;;;;;;;;6160775;23;20412;-75
2021/12/30 06:52:39;;;;;;;46.47;16.00;;;;;;;;;;6160419;23;20089;-76
2021/12/30 06:55:06;;;;;;;43.60;16.05;;;;;;;;;;6186250;23;20029;-75
2021/12/30 06:57:33;;;;;;;48.45;15.63;;;;;;;;;;6186528;23;20009;-76
2021/12/30 06:59:59;;;;;;;49.08;17.02;;;;;;;;;;6186359;23;20021;-78
2021/12/30 07:02:25;;;;;;;39.55;15.38;;;;;;;;;;6186521;23;20032;-73
2021/12/30 07:04:55;;;;;;;42.22;14.90;;;;;;;;;;6186713;23;20013;-87
2021/12/30 07:07:21;;;;;;;41.25;13.90;;;;;;;;;;6136126;23;20294;-73
2021/12/30 07:09:47;;;;;;;35.03;12.88;;;;;;;;;;6186227;23;20407;-74
2021/12/30 07:12:17;;;;;;;35.58;12.35;;;;;;;;;;6186082;23;20080;-81
2021/12/30 07:14:43;;;;;;;27.42;10.82;;;;;;;;;;6160209;23;20041;-75
2021/12/30 07:17:09;;;;;;;35.67;12.27;;;;;;;;;;6160073;23;20022;-74
2021/12/30 07:19:35;;;;;;;28.80;10.52;;;;;;;;;;6187545;23;20024;-75
2021/12/30 07:22:01;;;;;;;26.20;11.27;;;;;;;;;;6161698;23;20099;-73
2021/12/30 07:24:27;;;;;;;25.77;9.90;;;;;;;;;;6162244;23;20025;-74
2021/12/30 07:26:54;;;;;;;29.40;10.20;;;;;;;;;;6187685;23;20024;-75
2021/12/30 07:29:20;;;;;;;27.05;9.57;;;;;;;;;;6162625;23;20027;-75
2021/12/30 07:31:46;;;;;;;15.85;7.85;;;;;;;;;;6163124;23;20017;-75
2021/12/30 07:34:12;;;;;;;17.30;7.68;;;;;;;;;;6188056;23;20044;-73
2021/12/30 07:36:38;;;;;;;21.05;8.38;;;;;;;;;;6162135;23;20419;-74
2021/12/30 07:39:05;;;;;;;17.83;7.28;;;;;;;;;;6188268;23;20095;-82
2021/12/30 07:41:31;;;;;;;14.85;7.05;;;;;;;;;;6135655;23;20021;-76
2021/12/30 07:43:57;;;;;;;12.73;6.50;;;;;;;;;;6127860;23;20032;-75
2021/12/30 07:46:23;;;;;;;16.38;6.60;;;;;;;;;;6103147;23;20030;-73
2021/12/30 07:48:49;;;;;;;14.77;6.97;;;;;;;;;;6129120;23;20076;-74
2021/12/30 07:51:16;;;;;;;13.02;6.18;;;;;;;;;;6128593;23;20030;-73
2021/12/30 07:53:42;;;;;;;11.52;5.80;;;;;;;;;;6128787;23;20025;-73
2021/12/30 07:56:08;;;;;;;11.18;6.15;;;;;;;;;;6127340;23;20018;-74
2021/12/30 07:58:34;;;;;;;11.18;6.07;;;;;;;;;;6127274;23;20097;-72
2021/12/30 08:01:00;;;;;;;12.43;5.63;;;;;;;;;;6128004;23;20052;-73
2021/12/30 08:03:27;;;;;;;12.40;6.25;;;;;;;;;;6127616;23;20028;-74
2021/12/30 08:05:53;;;;;;;11.93;6.43;;;;;;;;;;6127147;23;20022;-73
2021/12/30 08:08:19;;;;;;;13.82;6.80;;;;;;;;;;6128925;23;20051;-73
2021/12/30 08:10:45;;;;;;;15.07;7.05;;;;;;;;;;6128333;23;20436;-74
2021/12/30 08:13:11;;;;;;;16.92;7.50;;;;;;;;;;6127624;23;20122;-71
2021/12/30 08:15:37;;;;;;;21.15;7.65;;;;;;;;;;6129146;23;20022;-73
2021/12/30 08:18:04;;;;;;;21.50;9.55;;;;;;;;;;6127241;23;20022;-74
2021/12/30 08:20:30;;;;;;;23.65;8.68;;;;;;;;;;6128475;23;20021;-74
2021/12/30 08:22:56;;;;;;;22.23;9.07;;;;;;;;;;6128710;23;20083;-78
2021/12/30 08:25:23;;;;;;;19.38;8.23;;;;;;;;;;6127345;23;20093;-76
2021/12/30 08:27:49;;;;;;;20.15;8.32;;;;;;;;;;6102914;23;20089;-79
2021/12/30 08:30:17;;;;;;;24.27;8.10;;;;;;;;;;6128262;23;20017;-78
2021/12/30 08:32:43;;;;;;;17.65;7.07;;;;;;;;;;6102558;23;20020;-79
2021/12/30 08:35:11;;;;;;;19.40;7.47;;;;;;;;;;6101820;23;20024;-79
2021/12/30 08:37:37;;;;;;;18.98;6.50;;;;;;;;;;6127277;23;20014;-81
2021/12/30 08:40:04;;;;;;;20.23;6.50;;;;;;;;;;6131705;23;20401;-81
2021/12/30 08:42:31;;;;;;;18.30;6.18;;;;;;;;;;6137326;23;20114;-82
2021/12/30 08:44:59;;;;;;;17.60;5.93;;;;;;;;;;6137757;23;20426;-82
2021/12/30 08:47:28;;;;;;;20.58;5.88;;;;;;;;;;6136367;23;20013;-85
2021/12/30 08:49:59;;;;;;;19.08;6.32;;;;;;;;;;6161396;23;20024;-80
2021/12/30 08:52:26;;;;;;;22.40;5.97;;;;;;;;;;6160046;23;20020;-81
2021/12/30 08:54:53;;;;;;;21.48;6.13;;;;;;;;;;6134889;23;20013;-83
2021/12/30 08:57:25;;;;;;;15.68;5.85;;;;;;;;;;6136602;23;20009;-79
2021/12/30 09:00:25;;;;;;;15.10;4.85;;;;;;;;;;6136726;23;20343;-83
2021/12/30 09:02:53;;;;;;;17.75;4.93;;;;;;;;;;6136136;23;20535;-82
2021/12/30 09:05:19;;;;;;;16.85;5.57;;;;;;;;;;6136477;23;20036;-80
2021/12/30 09:07:46;;;;;;;16.92;4.55;;;;;;;;;;6136077;23;20027;-80
2021/12/30 09:10:13;;;;;;;19.45;4.55;;;;;;;;;;6159815;23;20079;-83
2021/12/30 09:12:43;;;;;;;19.15;5.00;;;;;;;;;;6132934;23;20072;-81
2021/12/30 09:15:10;;;;;;;15.75;4.53;;;;;;;;;;6131838;23;20021;-82
2021/12/30 09:17:36;;;;;;;19.20;5.03;;;;;;;;;;6132603;23;20098;-83
2021/12/30 09:20:06;;;;;;;21.65;5.43;;;;;;;;;;6135365;23;20009;-82
2021/12/30 09:22:38;;;;;;;18.27;5.00;;;;;;;;;;6137224;23;20040;-83
2021/12/30 09:25:09;;;;;;;18.05;5.40;;;;;;;;;;6136268;23;20027;-77
2021/12/30 09:27:50;;;;;;;18.88;4.38;;;;;;;;;;6138309;23;20066;-81
2021/12/30 09:34:40;;;;;;;;;;;;;;;;;;;;;
2021/12/30 09:40:29;;;;;;;17.88;5.00;;;;;;;;;;6009140;23;20039;-81
2021/12/30 09:53:02;;;;;;;20.17;5.07;;;;;;;;;;6037635;23;20014;-81
2021/12/30 09:55:28;;;;;;;20.30;5.03;;;;;;;;;;6037616;23;20025;-77
2021/12/30 09:57:54;;;;;;;20.88;5.20;;;;;;;;;;6014621;23;20015;-80
2021/12/30 10:11:00;;;;;;;28.05;5.45;;;;;;;;;;5898795;24;20041;-79
2021/12/30 10:16:44;;;;;;;22.42;5.63;;;;;;;;;;5886697;24;20060;-79
2021/12/30 10:19:10;;;;;;;19.60;4.82;;;;;;;;;;5957774;24;20296;-76
2021/12/30 10:21:44;;;;;;;23.35;5.43;;;;;;;;;;5980161;23;20291;-77
2021/12/30 10:24:12;;;;;;;18.92;4.97;;;;;;;;;;5986442;23;20099;-79
2021/12/30 10:27:16;;;;;;;21.42;5.35;;;;;;;;;;5988889;23;20011;-79
2021/12/30 11:02:23;;;;;;;25.50;5.70;;;;;;;;;;5953920;24;20028;-79
2021/12/30 11:08:30;;;;;;;32.80;7.15;;;;;;;;;;5926798;24;20035;-79
2021/12/30 11:10:59;;;;;;;28.55;6.55;;;;;;;;;;5963632;23;20047;-80
2021/12/30 11:17:33;;;;;;;;;;;;;;;;;;;;;
2021/12/30 11:27:10;;;;;;;34.13;8.30;;;;;;;;;;5950598;23;20331;-80
2021/12/30 11:29:45;;;;;;;27.88;6.78;;;;;;;;;;5960151;24;20020;-81
2021/12/30 11:35:45;;;;;;;34.70;8.32;;;;;;;;;;5953036;24;20346;-80
2021/12/30 11:38:14;;;;;;;32.95;7.22;;;;;;;;;;5978386;24;20054;-80
2021/12/30 11:40:52;;;;;;;33.78;7.47;;;;;;;;;;6039489;23;20497;-80
2021/12/30 11:43:41;;;;;;;43.95;8.32;;;;;;;;;;6157117;23;20128;-79
2021/12/30 11:46:10;;;;;;;32.83;7.50;;;;;;;;;;6131248;23;20104;-79
2021/12/30 11:49:09;;;;;;;37.65;8.55;;;;;;;;;;6106572;23;20075;-79
2021/12/30 11:51:44;;;;;;;34.80;8.20;;;;;;;;;;6101485;23;20017;-79
2021/12/30 11:54:29;;;;;;;33.90;7.40;;;;;;;;;;6077244;23;20085;-82
2021/12/30 11:57:14;;;;;;;38.47;7.85;;;;;;;;;;6105857;23;20025;-79
2021/12/30 11:59:40;;;;;;;31.40;8.15;;;;;;;;;;6106437;23;20045;-77
2021/12/30 12:02:24;;;;;;;36.22;7.57;;;;;;;;;;6130785;23;20018;-78
2021/12/30 12:04:50;;;;;;;31.05;6.97;;;;;;;;;;6105585;23;20013;-78
2021/12/30 12:07:17;;;;;;;34.08;7.28;;;;;;;;;;6105740;23;20117;-79
2021/12/30 12:09:43;;;;;;;32.85;7.93;;;;;;;;;;6130255;23;20040;-79
2021/12/30 12:12:31;;;;;;;42.05;8.75;;;;;;;;;;6155715;23;20017;-78
2021/12/30 12:14:59;;;;;;;33.40;8.02;;;;;;;;;;6106875;23;20419;-77
2021/12/30 12:17:48;;;;;;;28.90;7.78;;;;;;;;;;6161244;23;20036;-78
2021/12/30 12:20:14;;;;;;;33.97;7.28;;;;;;;;;;6127478;23;20021;-77
2021/12/30 12:22:40;;;;;;;33.88;8.13;;;;;;;;;;6161556;23;20024;-78
2021/12/30 12:25:16;;;;;;;36.25;7.10;;;;;;;;;;6136823;23;20017;-78
2021/12/30 12:27:45;;;;;;;26.65;6.88;;;;;;;;;;6159987;23;20017;-78
2021/12/30 12:30:22;;;;;;;36.85;8.35;;;;;;;;;;6161818;23;20308;-77
2021/12/30 12:32:48;;;;;;;34.38;7.72;;;;;;;;;;6161636;23;20017;-77
2021/12/30 12:35:14;;;;;;;29.92;7.57;;;;;;;;;;6160613;23;20063;-76
2021/12/30 12:37:40;;;;;;;29.67;7.30;;;;;;;;;;6160744;23;20021;-79
2021/12/30 12:40:11;;;;;;;30.60;7.18;;;;;;;;;;6161236;23;20024;-78
2021/12/30 12:43:01;;;;;;;27.40;7.13;;;;;;;;;;6161529;23;20095;-76
2021/12/30 12:45:27;;;;;;;29.83;7.07;;;;;;;;;;6146607;23;20442;-77
2021/12/30 12:48:12;;;;;;;24.73;6.32;;;;;;;;;;6161448;23;20036;-76
2021/12/30 12:50:39;;;;;;;29.05;6.97;;;;;;;;;;6187265;23;20024;-78
2021/12/30 12:53:19;;;;;;;25.40;6.70;;;;;;;;;;6161254;23;20036;-77
2021/12/30 12:55:46;;;;;;;25.85;6.13;;;;;;;;;;6135242;23;20025;-78
2021/12/30 12:58:12;;;;;;;26.10;6.65;;;;;;;;;;6136576;23;20021;-77
2021/12/30 13:00:39;;;;;;;30.42;7.35;;;;;;;;;;6161651;23;20017;-78
2021/12/30 13:03:05;;;;;;;32.88;7.40;;;;;;;;;;6160909;23;20082;-79
2021/12/30 13:05:32;;;;;;;28.63;6.50;;;;;;;;;;6136631;23;20021;-78
2021/12/30 13:07:58;;;;;;;26.25;6.53;;;;;;;;;;6161088;23;20028;-77
2021/12/30 13:10:24;;;;;;;27.52;5.97;;;;;;;;;;6160508;23;20450;-79
2021/12/30 13:12:50;;;;;;;26.15;6.60;;;;;;;;;;6159273;23;20100;-78
2021/12/30 13:15:17;;;;;;;28.58;6.28;;;;;;;;;;6160112;23;20017;-77
2021/12/30 13:17:44;;;;;;;25.48;7.60;;;;;;;;;;6135604;23;20072;-78
2021/12/30 13:20:13;;;;;;;29.63;6.35;;;;;;;;;;6161120;23;20096;-77
2021/12/30 13:22:39;;;;;;;23.15;6.32;;;;;;;;;;6136407;23;20106;-78
2021/12/30 13:25:07;;;;;;;35.53;7.38;;;;;;;;;;6185011;23;20431;-78
2021/12/30 13:27:33;;;;;;;33.97;7.00;;;;;;;;;;6135231;23;20052;-78
2021/12/30 13:30:00;;;;;;;32.53;6.75;;;;;;;;;;6160424;23;20043;-76
2021/12/30 13:32:26;;;;;;;28.30;6.93;;;;;;;;;;6160163;23;20420;-78
2021/12/30 13:34:57;;;;;;;34.58;6.70;;;;;;;;;;6161104;23;20100;-78
2021/12/30 13:37:26;;;;;;;33.90;7.15;;;;;;;;;;6160191;23;20036;-77
2021/12/30 13:39:55;;;;;;;33.33;7.10;;;;;;;;;;6187035;23;20029;-76
2021/12/30 13:42:21;;;;;;;38.78;7.20;;;;;;;;;;6160488;23;20036;-77
2021/12/30 13:44:49;;;;;;;29.00;7.93;;;;;;;;;;6159216;23;20411;-79
2021/12/30 13:47:16;;;;;;;29.08;7.10;;;;;;;;;;6186476;23;20017;-78
2021/12/30 13:49:42;;;;;;;26.20;7.13;;;;;;;;;;6160253;23;20021;-78
2021/12/30 13:52:08;;;;;;;30.20;7.18;;;;;;;;;;6134812;23;20027;-79
2021/12/30 13:54:34;;;;;;;33.20;8.00;;;;;;;;;;6134789;23;20056;-78
2021/12/30 13:57:00;;;;;;;33.15;7.93;;;;;;;;;;6157675;23;20040;-77
2021/12/30 13:59:31;;;;;;;36.75;7.80;;;;;;;;;;6159814;23;20025;-76
2021/12/30 14:01:59;;;;;;;35.60;8.07;;;;;;;;;;6160743;23;20025;-77
2021/12/30 14:04:38;;;;;;;31.85;7.70;;;;;;;;;;6186177;23;20024;-77
2021/12/30 14:07:04;;;;;;;29.65;8.43;;;;;;;;;;6161095;23;20017;-78
2021/12/30 14:09:30;;;;;;;32.10;7.50;;;;;;;;;;6160729;23;20100;-76
2021/12/30 14:12:01;;;;;;;30.25;7.03;;;;;;;;;;6186225;23;20025;-77
2021/12/30 14:14:33;;;;;;;32.67;7.35;;;;;;;;;;6160827;23;20017;-78
2021/12/30 14:17:01;;;;;;;34.53;7.20;;;;;;;;;;6161023;23;20021;-77
2021/12/30 14:19:28;;;;;;;30.60;7.20;;;;;;;;;;6160228;23;20017;-78
2021/12/30 14:21:54;;;;;;;31.00;8.35;;;;;;;;;;6136199;23;20024;-77
2021/12/30 14:24:24;;;;;;;32.83;7.97;;;;;;;;;;6159978;23;20320;-78
2021/12/30 14:26:55;;;;;;;27.23;7.90;;;;;;;;;;6159954;23;20090;-78
2021/12/30 14:29:23;;;;;;;27.55;7.35;;;;;;;;;;6160583;23;20044;-78
2021/12/30 14:31:52;;;;;;;26.20;7.90;;;;;;;;;;6136796;23;20017;-78
2021/12/30 14:34:18;;;;;;;31.85;8.15;;;;;;;;;;6160807;23;20363;-78
2021/12/30 14:36:59;;;;;;;31.75;6.95;;;;;;;;;;6160249;23;20105;-78
2021/12/30 14:39:25;;;;;;;27.10;7.60;;;;;;;;;;6161610;23;20289;-79
2021/12/30 14:42:02;;;;;;;27.73;7.00;;;;;;;;;;6160478;23;20416;-80
2021/12/30 14:44:28;;;;;;;34.65;7.97;;;;;;;;;;6186990;23;20050;-78
2021/12/30 14:47:14;;;;;;;31.55;6.93;;;;;;;;;;6160771;23;20025;-79
2021/12/30 14:49:59;;;;;;;33.30;7.85;;;;;;;;;;6160249;23;20096;-79
2021/12/30 14:52:27;;;;;;;31.25;7.57;;;;;;;;;;6136215;23;20021;-82
2021/12/30 14:54:55;;;;;;;33.35;7.63;;;;;;;;;;6136057;23;20048;-80
2021/12/30 14:57:24;;;;;;;33.92;7.65;;;;;;;;;;6158676;23;20021;-79
2021/12/30 14:59:50;;;;;;;30.63;6.60;;;;;;;;;;6185845;23;20448;-80
2021/12/30 15:02:17;;;;;;;30.83;6.85;;;;;;;;;;6135008;23;20451;-80
2021/12/30 15:04:43;;;;;;;29.00;7.13;;;;;;;;;;6160961;23;20020;-78
2021/12/30 15:07:10;;;;;;;24.10;7.07;;;;;;;;;;6133931;23;20096;-78
2021/12/30 15:09:39;;;;;;;29.13;6.70;;;;;;;;;;6135935;23;20438;-78
2021/12/30 15:12:06;;;;;;;29.92;7.32;;;;;;;;;;6186121;23;20052;-79
2021/12/30 15:14:33;;;;;;;32.38;7.30;;;;;;;;;;6135264;23;20012;-78
2021/12/30 15:16:59;;;;;;;30.08;6.75;;;;;;;;;;6135074;23;20021;-81
2021/12/30 15:19:25;;;;;;;29.00;6.75;;;;;;;;;;6185002;23;20025;-79
2021/12/30 15:21:51;;;;;;;25.75;6.72;;;;;;;;;;6159713;23;20304;-77
2021/12/30 15:24:17;;;;;;;28.15;7.00;;;;;;;;;;6160390;23;20017;-78
2021/12/30 15:26:43;;;;;;;27.52;7.40;;;;;;;;;;6159316;23;20014;-79
2021/12/30 15:29:09;;;;;;;27.33;6.82;;;;;;;;;;6135421;23;20100;-79
2021/12/30 15:31:35;;;;;;;28.52;5.88;;;;;;;;;;6159971;23;20075;-80
2021/12/30 15:34:01;;;;;;;22.90;5.95;;;;;;;;;;6160442;23;20017;-79
2021/12/30 15:36:27;;;;;;;30.65;6.38;;;;;;;;;;6135709;23;20052;-79
2021/12/30 15:38:54;;;;;;;25.50;6.45;;;;;;;;;;6159612;23;20355;-79
2021/12/30 15:41:20;;;;;;;22.23;6.43;;;;;;;;;;6137029;23;20021;-80
2021/12/30 15:43:47;;;;;;;23.73;6.03;;;;;;;;;;6161492;23;20021;-80
2021/12/30 15:46:14;;;;;;;25.25;6.00;;;;;;;;;;6160957;23;20029;-78
2021/12/30 15:48:41;;;;;;;24.52;6.00;;;;;;;;;;6186090;23;20013;-78
2021/12/30 15:51:11;;;;;;;24.40;5.70;;;;;;;;;;6157803;23;20176;-78
2021/12/30 15:53:37;;;;;;;26.30;6.65;;;;;;;;;;6133285;23;20107;-78
2021/12/30 15:56:03;;;;;;;27.02;5.90;;;;;;;;;;6161408;23;20017;-79
2021/12/30 15:58:29;;;;;;;20.38;5.75;;;;;;;;;;6186889;23;20020;-78
2021/12/30 16:00:55;;;;;;;21.40;5.90;;;;;;;;;;6136745;23;20020;-79
2021/12/30 16:03:22;;;;;;;24.48;7.07;;;;;;;;;;6136974;23;20438;-78
2021/12/30 16:05:48;;;;;;;25.02;6.10;;;;;;;;;;6161818;23;20079;-80
2021/12/30 16:08:15;;;;;;;22.55;5.72;;;;;;;;;;6161814;23;20368;-78
2021/12/30 16:10:45;;;;;;;27.70;6.82;;;;;;;;;;6161454;23;20020;-79
2021/12/30 16:13:11;;;;;;;24.67;6.35;;;;;;;;;;6161479;23;20402;-80
2021/12/30 16:15:38;;;;;;;20.60;6.15;;;;;;;;;;6161362;23;20423;-80
2021/12/30 16:18:04;;;;;;;32.72;7.47;;;;;;;;;;6136649;23;20032;-78
2021/12/30 16:20:34;;;;;;;25.45;6.30;;;;;;;;;;6161063;23;20051;-79
2021/12/30 16:23:04;;;;;;;29.85;6.45;;;;;;;;;;6161497;23;20021;-77
2021/12/30 16:25:30;;;;;;;25.70;6.03;;;;;;;;;;6159135;23;20324;-79
2021/12/30 16:27:57;;;;;;;24.00;6.07;;;;;;;;;;6159414;23;20024;-77
2021/12/30 16:30:23;;;;;;;28.05;6.90;;;;;;;;;;6137711;23;20013;-78
2021/12/30 16:32:49;;;;;;;23.67;6.28;;;;;;;;;;6161310;23;20022;-78
2021/12/30 16:35:16;;;;;;;27.05;6.30;;;;;;;;;;6160867;23;20489;-79
2021/12/30 16:37:43;;;;;;;22.10;6.57;;;;;;;;;;6137308;23;20104;-79